UAL932 KIAD-EDDF
Flight info
| Callsign | UAL932 |
|---|---|
| Flight time | 4h 39m |
| Altitude | 35000 |
| Route | WOOLY2 AGARD DONIL SIE B24 LYNUS WHALE N93B SUPRY/M084F370 NATV ELSOX/M084F390 MAPAG LESLU/N0487F390 OXLOW KONAN KOK SPI T180 NIVNU/N0417F230 T847 IMCOM IMCOM1D |
| Aircraft | B772/H-VGDW/C |
Departure
| Time | 2026-04-13 00:45 |
|---|---|
| Airport | Washington Dulles International Airport (KIAD) |
Arrival
| Time | 2026-04-13 05:24 |
|---|---|
| Airport | Frankfurt Main Airport (EDDF) |
| Time | Latitude | Longitude | Altitude | Speed | Heading |
|---|---|---|---|---|---|
| 2026-04-13 00:03 | 38.94929 | -77.44838 | 306 ft | 0 kts | 200° |
| 2026-04-13 00:21 | 38.94937 | -77.44835 | 300 ft | 3 kts | 198° |
| 2026-04-13 00:22 | 38.94956 | -77.44827 | 301 ft | 3 kts | 191° |
| 2026-04-13 00:22 | 38.94977 | -77.44823 | 300 ft | 3 kts | 187° |
| 2026-04-13 00:22 | 38.94995 | -77.44820 | 298 ft | 2 kts | 192° |
| 2026-04-13 00:22 | 38.95008 | -77.44817 | 299 ft | 3 kts | 173° |
| 2026-04-13 00:23 | 38.95021 | -77.44824 | 301 ft | 3 kts | 116° |
| 2026-04-13 00:23 | 38.95027 | -77.44848 | 300 ft | 3 kts | 95° |
| 2026-04-13 00:23 | 38.95028 | -77.44866 | 299 ft | 1 kts | 90° |
| 2026-04-13 00:23 | 38.95028 | -77.44871 | 300 ft | 0 kts | 90° |
| 2026-04-13 00:26 | 38.95028 | -77.44861 | 299 ft | 6 kts | 90° |
| 2026-04-13 00:26 | 38.95027 | -77.44769 | 297 ft | 12 kts | 90° |
| 2026-04-13 00:26 | 38.95026 | -77.44662 | 297 ft | 12 kts | 90° |
| 2026-04-13 00:26 | 38.95025 | -77.44556 | 298 ft | 12 kts | 91° |
| 2026-04-13 00:27 | 38.95024 | -77.44451 | 297 ft | 12 kts | 90° |
| 2026-04-13 00:27 | 38.95025 | -77.44343 | 297 ft | 12 kts | 90° |
| 2026-04-13 00:27 | 38.95024 | -77.44236 | 297 ft | 12 kts | 91° |
| 2026-04-13 00:27 | 38.95022 | -77.44131 | 297 ft | 12 kts | 90° |
| 2026-04-13 00:28 | 38.95022 | -77.44071 | 297 ft | 0 kts | 90° |
| 2026-04-13 00:29 | 38.95021 | -77.44040 | 297 ft | 10 kts | 91° |
| 2026-04-13 00:30 | 38.95013 | -77.43947 | 301 ft | 11 kts | 97° |
| 2026-04-13 00:30 | 38.95043 | -77.43869 | 302 ft | 11 kts | 23° |
| 2026-04-13 00:30 | 38.95116 | -77.43859 | 299 ft | 11 kts | 1° |
| 2026-04-13 00:30 | 38.95189 | -77.43858 | 299 ft | 11 kts | 1° |
| 2026-04-13 00:31 | 38.95255 | -77.43857 | 300 ft | 7 kts | 0° |
| 2026-04-13 00:31 | 38.95266 | -77.43856 | 300 ft | 0 kts | 0° |
| 2026-04-13 00:32 | 38.95268 | -77.43856 | 300 ft | 3 kts | 0° |
| 2026-04-13 00:32 | 38.95329 | -77.43855 | 300 ft | 10 kts | 0° |
| 2026-04-13 00:32 | 38.95399 | -77.43855 | 301 ft | 9 kts | 0° |
| 2026-04-13 00:32 | 38.95409 | -77.43855 | 300 ft | 0 kts | 360° |
| 2026-04-13 00:38 | 38.95427 | -77.43854 | 300 ft | 3 kts | 2° |
| 2026-04-13 00:38 | 38.95448 | -77.43851 | 302 ft | 3 kts | 9° |
| 2026-04-13 00:38 | 38.95472 | -77.43832 | 301 ft | 5 kts | 46° |
| 2026-04-13 00:39 | 38.95479 | -77.43813 | 302 ft | 0 kts | 70° |
| 2026-04-13 00:40 | 38.95481 | -77.43804 | 302 ft | 1 kts | 75° |
| 2026-04-13 00:41 | 38.95483 | -77.43779 | 298 ft | 5 kts | 85° |
| 2026-04-13 00:41 | 38.95484 | -77.43760 | 299 ft | 0 kts | 88° |
| 2026-04-13 00:43 | 38.95484 | -77.43743 | 299 ft | 8 kts | 89° |
| 2026-04-13 00:44 | 38.95493 | -77.43674 | 305 ft | 8 kts | 69° |
| 2026-04-13 00:44 | 38.95417 | -77.43600 | 305 ft | 8 kts | 178° |
| 2026-04-13 00:44 | 38.95355 | -77.43600 | 303 ft | 16 kts | 180° |
| 2026-04-13 00:45 | 38.94976 | -77.43605 | 304 ft | 95 kts | 180° |
| 2026-04-13 00:45 | 38.94063 | -77.43620 | 315 ft | 166 kts | 181° |
| 2026-04-13 00:45 | 38.92824 | -77.43662 | 946 ft | 183 kts | 179° |
| 2026-04-13 00:45 | 38.91538 | -77.43671 | 1987 ft | 187 kts | 181° |
| 2026-04-13 00:46 | 38.90233 | -77.43679 | 2927 ft | 190 kts | 183° |
| 2026-04-13 00:46 | 38.88875 | -77.43659 | 3758 ft | 205 kts | 184° |
| 2026-04-13 00:46 | 38.87423 | -77.43649 | 3759 ft | 210 kts | 185° |
| 2026-04-13 00:46 | 38.85966 | -77.43709 | 3763 ft | 213 kts | 188° |
| 2026-04-13 00:47 | 38.84455 | -77.43835 | 3732 ft | 219 kts | 188° |
| 2026-04-13 00:47 | 38.82927 | -77.44017 | 3535 ft | 222 kts | 189° |
| 2026-04-13 00:47 | 38.81385 | -77.44244 | 3179 ft | 224 kts | 189° |
| 2026-04-13 00:47 | 38.79907 | -77.44362 | 3311 ft | 200 kts | 193° |
| 2026-04-13 00:48 | 38.78666 | -77.45121 | 3312 ft | 204 kts | 224° |
| 2026-04-13 00:48 | 38.78017 | -77.46703 | 3317 ft | 205 kts | 254° |
| 2026-04-13 00:48 | 38.77880 | -77.48531 | 3318 ft | 209 kts | 259° |
| 2026-04-13 00:48 | 38.77780 | -77.50380 | 3415 ft | 211 kts | 259° |
| 2026-04-13 00:49 | 38.77678 | -77.52232 | 3801 ft | 207 kts | 260° |
| 2026-04-13 00:49 | 38.77563 | -77.54079 | 4292 ft | 209 kts | 260° |
| 2026-04-13 00:49 | 38.77432 | -77.55932 | 4775 ft | 208 kts | 263° |
| 2026-04-13 00:49 | 38.77673 | -77.57743 | 5022 ft | 218 kts | 290° |
| 2026-04-13 00:50 | 38.78703 | -77.59219 | 5030 ft | 233 kts | 320° |
| 2026-04-13 00:50 | 38.80209 | -77.60228 | 5037 ft | 253 kts | 328° |
| 2026-04-13 00:50 | 38.81831 | -77.61168 | 5028 ft | 256 kts | 329° |
| 2026-04-13 00:50 | 38.83452 | -77.62087 | 5009 ft | 253 kts | 329° |
| 2026-04-13 00:51 | 38.85027 | -77.62972 | 5041 ft | 249 kts | 329° |
| 2026-04-13 00:51 | 38.86684 | -77.63909 | 5467 ft | 269 kts | 329° |
| 2026-04-13 00:51 | 38.88418 | -77.64893 | 6130 ft | 274 kts | 329° |
| 2026-04-13 00:51 | 38.90163 | -77.65878 | 6764 ft | 273 kts | 329° |
| 2026-04-13 00:52 | 38.91908 | -77.66854 | 7348 ft | 275 kts | 329° |
| 2026-04-13 00:52 | 38.93659 | -77.67834 | 8012 ft | 276 kts | 330° |
| 2026-04-13 00:52 | 38.95419 | -77.68831 | 8629 ft | 275 kts | 330° |
| 2026-04-13 00:52 | 38.97220 | -77.69628 | 9213 ft | 280 kts | 347° |
| 2026-04-13 00:53 | 38.99175 | -77.69420 | 9833 ft | 296 kts | 13° |
| 2026-04-13 00:53 | 39.00919 | -77.68249 | 10012 ft | 309 kts | 36° |
| 2026-04-13 00:53 | 39.02391 | -77.66257 | 10040 ft | 312 kts | 49° |
| 2026-04-13 00:53 | 39.03709 | -77.64036 | 10012 ft | 312 kts | 51° |
| 2026-04-13 00:54 | 39.04989 | -77.61787 | 10016 ft | 311 kts | 51° |
| 2026-04-13 00:54 | 39.06267 | -77.59526 | 10035 ft | 311 kts | 51° |
| 2026-04-13 00:54 | 39.07508 | -77.57327 | 10021 ft | 310 kts | 51° |
| 2026-04-13 00:54 | 39.08756 | -77.55118 | 10002 ft | 309 kts | 51° |
| 2026-04-13 00:55 | 39.10012 | -77.52891 | 10026 ft | 307 kts | 51° |
| 2026-04-13 00:55 | 39.11266 | -77.50672 | 10006 ft | 306 kts | 51° |
| 2026-04-13 00:55 | 39.12514 | -77.48458 | 10169 ft | 304 kts | 51° |
| 2026-04-13 00:55 | 39.13763 | -77.46246 | 10711 ft | 309 kts | 51° |
| 2026-04-13 00:56 | 39.14572 | -77.44814 | 11094 ft | 314 kts | 51° |
| 2026-04-13 00:56 | 39.15880 | -77.42496 | 11754 ft | 323 kts | 51° |
| 2026-04-13 00:56 | 39.17650 | -77.39346 | 12600 ft | 332 kts | 51° |
| 2026-04-13 00:56 | 39.19013 | -77.36906 | 13266 ft | 338 kts | 51° |
| 2026-04-13 00:57 | 39.19927 | -77.35262 | 13703 ft | 343 kts | 51° |
| 2026-04-13 00:57 | 39.21359 | -77.32679 | 14068 ft | 361 kts | 51° |
| 2026-04-13 00:57 | 39.22882 | -77.29942 | 14051 ft | 386 kts | 51° |
| 2026-04-13 00:57 | 39.24455 | -77.27120 | 14028 ft | 389 kts | 51° |
| 2026-04-13 00:58 | 39.26035 | -77.24282 | 14048 ft | 390 kts | 51° |
| 2026-04-13 00:58 | 39.27622 | -77.21435 | 14029 ft | 389 kts | 51° |
| 2026-04-13 00:58 | 39.29201 | -77.18612 | 14025 ft | 387 kts | 51° |
| 2026-04-13 00:58 | 39.30668 | -77.15737 | 14017 ft | 382 kts | 64° |
| 2026-04-13 00:59 | 39.31375 | -77.12409 | 14058 ft | 390 kts | 79° |
| 2026-04-13 00:59 | 39.31980 | -77.08954 | 14032 ft | 395 kts | 70° |
| 2026-04-13 00:59 | 39.32758 | -77.05632 | 14034 ft | 392 kts | 78° |
| 2026-04-13 00:59 | 39.33001 | -77.02107 | 14048 ft | 398 kts | 91° |
| 2026-04-13 01:00 | 39.32542 | -76.98603 | 14033 ft | 395 kts | 109° |
| 2026-04-13 01:00 | 39.31564 | -76.95283 | 14045 ft | 397 kts | 113° |
| 2026-04-13 01:00 | 39.30518 | -76.91976 | 14046 ft | 398 kts | 113° |
| 2026-04-13 01:00 | 39.29461 | -76.88661 | 14050 ft | 398 kts | 113° |
| 2026-04-13 01:01 | 39.28422 | -76.85366 | 14059 ft | 398 kts | 113° |
| 2026-04-13 01:01 | 39.27403 | -76.82085 | 14104 ft | 394 kts | 112° |
| 2026-04-13 01:01 | 39.26402 | -76.78821 | 14538 ft | 392 kts | 112° |
| 2026-04-13 01:01 | 39.25399 | -76.75532 | 15255 ft | 396 kts | 112° |
| 2026-04-13 01:02 | 39.24390 | -76.72212 | 15984 ft | 400 kts | 112° |
| 2026-04-13 01:02 | 39.23372 | -76.68859 | 16713 ft | 403 kts | 112° |
| 2026-04-13 01:02 | 39.22393 | -76.65634 | 17448 ft | 405 kts | 112° |
| 2026-04-13 01:02 | 39.21361 | -76.62237 | 18222 ft | 406 kts | 112° |
| 2026-04-13 01:03 | 39.20342 | -76.58887 | 18943 ft | 406 kts | 112° |
| 2026-04-13 01:03 | 39.19310 | -76.55497 | 19557 ft | 408 kts | 112° |
| 2026-04-13 01:03 | 39.18270 | -76.52087 | 20147 ft | 410 kts | 112° |
| 2026-04-13 01:03 | 39.17223 | -76.48660 | 20753 ft | 411 kts | 111° |
| 2026-04-13 01:04 | 39.16173 | -76.45224 | 21388 ft | 412 kts | 111° |
| 2026-04-13 01:04 | 39.15126 | -76.41802 | 21997 ft | 411 kts | 111° |
| 2026-04-13 01:04 | 39.14073 | -76.38366 | 22630 ft | 411 kts | 111° |
| 2026-04-13 01:04 | 39.13025 | -76.34951 | 23272 ft | 409 kts | 111° |
| 2026-04-13 01:05 | 39.11994 | -76.31595 | 23899 ft | 407 kts | 110° |
| 2026-04-13 01:05 | 39.10943 | -76.28182 | 24460 ft | 404 kts | 110° |
| 2026-04-13 01:05 | 39.09923 | -76.24868 | 25007 ft | 400 kts | 110° |
| 2026-04-13 01:05 | 39.08902 | -76.21556 | 25567 ft | 395 kts | 110° |
| 2026-04-13 01:06 | 39.07894 | -76.18289 | 26104 ft | 390 kts | 110° |
| 2026-04-13 01:06 | 39.06901 | -76.15078 | 26680 ft | 383 kts | 110° |
| 2026-04-13 01:06 | 39.05928 | -76.11935 | 27251 ft | 375 kts | 110° |
| 2026-04-13 01:06 | 39.05084 | -76.08815 | 27803 ft | 362 kts | 101° |
| 2026-04-13 01:07 | 39.04645 | -76.05685 | 28321 ft | 350 kts | 94° |
| 2026-04-13 01:07 | 39.04546 | -76.02585 | 28461 ft | 347 kts | 83° |
| 2026-04-13 01:07 | 39.04686 | -75.99685 | 28447 ft | 352 kts | 80° |
| 2026-04-13 01:08 | 39.05125 | -75.93300 | 28460 ft | 367 kts | 83° |
| 2026-04-13 01:08 | 39.05383 | -75.86673 | 28468 ft | 384 kts | 83° |
| 2026-04-13 01:09 | 39.05656 | -75.79657 | 28465 ft | 403 kts | 83° |
| 2026-04-13 01:09 | 39.05807 | -75.76007 | 28466 ft | 414 kts | 83° |
| 2026-04-13 01:09 | 39.05967 | -75.72264 | 28470 ft | 424 kts | 83° |
| 2026-04-13 01:09 | 39.06131 | -75.68441 | 28461 ft | 435 kts | 83° |
| 2026-04-13 01:10 | 39.06300 | -75.64513 | 28465 ft | 445 kts | 83° |
| 2026-04-13 01:10 | 39.06645 | -75.56381 | 28463 ft | 465 kts | 83° |
| 2026-04-13 01:11 | 39.06995 | -75.47968 | 28471 ft | 482 kts | 84° |
| 2026-04-13 01:11 | 39.07352 | -75.39214 | 28469 ft | 497 kts | 84° |
| 2026-04-13 01:12 | 39.07712 | -75.30245 | 28738 ft | 503 kts | 84° |
| 2026-04-13 01:12 | 39.07886 | -75.25779 | 29246 ft | 497 kts | 84° |
| 2026-04-13 01:12 | 39.08057 | -75.21362 | 29766 ft | 491 kts | 83° |
| 2026-04-13 01:12 | 39.08226 | -75.16992 | 30303 ft | 486 kts | 83° |
| 2026-04-13 01:13 | 39.08391 | -75.12675 | 30764 ft | 480 kts | 83° |
| 2026-04-13 01:13 | 39.08551 | -75.08466 | 31222 ft | 474 kts | 83° |
| 2026-04-13 01:13 | 39.08710 | -75.04261 | 31709 ft | 468 kts | 82° |
| 2026-04-13 01:13 | 39.08866 | -75.00093 | 32179 ft | 462 kts | 82° |
| 2026-04-13 01:14 | 39.09010 | -74.96216 | 32633 ft | 456 kts | 82° |
| 2026-04-13 01:14 | 39.09159 | -74.92173 | 33113 ft | 449 kts | 81° |
| 2026-04-13 01:14 | 39.09303 | -74.88193 | 33604 ft | 442 kts | 81° |
| 2026-04-13 01:14 | 39.09390 | -74.84261 | 34075 ft | 437 kts | 87° |
| 2026-04-13 01:15 | 39.08950 | -74.80403 | 34550 ft | 437 kts | 100° |
| 2026-04-13 01:15 | 39.07969 | -74.76700 | 34791 ft | 439 kts | 111° |
| 2026-04-13 01:15 | 39.06480 | -74.73269 | 34987 ft | 438 kts | 119° |
| 2026-04-13 01:15 | 39.04871 | -74.70056 | 35212 ft | 435 kts | 120° |
| 2026-04-13 01:16 | 39.03212 | -74.66808 | 35335 ft | 434 kts | 120° |
| 2026-04-13 01:16 | 38.99914 | -74.60272 | 35402 ft | 438 kts | 119° |
| 2026-04-13 01:17 | 38.96613 | -74.53603 | 35439 ft | 447 kts | 119° |
| 2026-04-13 01:17 | 38.93246 | -74.46777 | 35445 ft | 458 kts | 119° |
| 2026-04-13 01:18 | 38.89792 | -74.39794 | 35444 ft | 470 kts | 119° |
| 2026-04-13 01:18 | 38.86266 | -74.32611 | 35457 ft | 481 kts | 118° |
| 2026-04-13 01:19 | 38.82683 | -74.25298 | 35448 ft | 493 kts | 119° |
| 2026-04-13 01:19 | 38.78984 | -74.17785 | 35448 ft | 504 kts | 119° |
| 2026-04-13 01:20 | 38.75168 | -74.10132 | 35444 ft | 515 kts | 120° |
| 2026-04-13 01:20 | 38.71242 | -74.02354 | 35434 ft | 524 kts | 120° |
| 2026-04-13 01:21 | 38.67406 | -73.94729 | 35439 ft | 532 kts | 120° |
| 2026-04-13 01:21 | 38.63412 | -73.86710 | 35445 ft | 538 kts | 119° |
| 2026-04-13 01:22 | 38.59359 | -73.78625 | 35452 ft | 542 kts | 120° |
| 2026-04-13 01:22 | 38.55239 | -73.70519 | 35453 ft | 543 kts | 120° |
| 2026-04-13 01:23 | 38.51136 | -73.62406 | 35452 ft | 543 kts | 120° |
| 2026-04-13 01:23 | 38.46945 | -73.54393 | 35444 ft | 543 kts | 121° |
| 2026-04-13 01:24 | 38.42763 | -73.46469 | 35449 ft | 541 kts | 120° |
| 2026-04-13 01:24 | 38.38728 | -73.38399 | 35457 ft | 539 kts | 118° |
| 2026-04-13 01:25 | 38.34801 | -73.30272 | 35465 ft | 538 kts | 119° |
| 2026-04-13 01:25 | 38.30756 | -73.22258 | 35457 ft | 538 kts | 121° |
| 2026-04-13 01:26 | 38.26623 | -73.14327 | 35466 ft | 537 kts | 120° |
| 2026-04-13 01:26 | 38.22609 | -73.06336 | 35463 ft | 535 kts | 119° |
| 2026-04-13 01:27 | 38.18695 | -72.98537 | 35461 ft | 536 kts | 120° |
| 2026-04-13 01:27 | 38.14552 | -72.90669 | 35471 ft | 536 kts | 121° |
| 2026-04-13 01:28 | 38.10448 | -72.82854 | 35467 ft | 535 kts | 120° |
| 2026-04-13 01:28 | 38.06661 | -72.74785 | 35457 ft | 525 kts | 106° |
| 2026-04-13 01:28 | 38.05815 | -72.70345 | 35476 ft | 512 kts | 89° |
| 2026-04-13 01:29 | 38.05921 | -72.65898 | 35475 ft | 500 kts | 73° |
| 2026-04-13 01:29 | 38.06858 | -72.61722 | 35481 ft | 487 kts | 59° |
| 2026-04-13 01:29 | 38.08466 | -72.58006 | 35491 ft | 475 kts | 47° |
| 2026-04-13 01:29 | 38.10557 | -72.54905 | 35474 ft | 465 kts | 36° |
| 2026-04-13 01:30 | 38.13182 | -72.52680 | 35467 ft | 447 kts | 16° |
| 2026-04-13 01:30 | 38.16150 | -72.51821 | 35472 ft | 433 kts | 357° |
| 2026-04-13 01:30 | 38.19039 | -72.52370 | 35473 ft | 426 kts | 338° |
| 2026-04-13 01:30 | 38.21604 | -72.54280 | 35470 ft | 426 kts | 318° |
| 2026-04-13 01:31 | 38.23348 | -72.57108 | 35476 ft | 433 kts | 300° |
| 2026-04-13 01:31 | 38.24241 | -72.60794 | 35456 ft | 446 kts | 281° |
| 2026-04-13 01:31 | 38.24034 | -72.64781 | 35466 ft | 463 kts | 261° |
| 2026-04-13 01:31 | 38.22715 | -72.68587 | 35460 ft | 482 kts | 242° |
| 2026-04-13 01:32 | 38.20711 | -72.71992 | 35474 ft | 480 kts | 237° |
| 2026-04-13 01:32 | 38.18228 | -72.74924 | 35460 ft | 500 kts | 218° |
| 2026-04-13 01:32 | 38.15060 | -72.76765 | 35473 ft | 518 kts | 199° |
| 2026-04-13 01:32 | 38.11442 | -72.77314 | 35476 ft | 532 kts | 180° |
| 2026-04-13 01:33 | 38.07784 | -72.76444 | 35476 ft | 541 kts | 161° |
| 2026-04-13 01:33 | 38.04458 | -72.74217 | 35462 ft | 543 kts | 141° |
| 2026-04-13 01:33 | 38.01802 | -72.70848 | 35472 ft | 539 kts | 122° |
| 2026-04-13 01:33 | 38.00077 | -72.66690 | 35488 ft | 529 kts | 103° |
| 2026-04-13 01:34 | 37.99397 | -72.62199 | 35496 ft | 517 kts | 89° |
| 2026-04-13 01:34 | 37.98902 | -72.53109 | 35481 ft | 516 kts | 86° |
| 2026-04-13 01:35 | 37.99617 | -72.44929 | 35462 ft | 491 kts | 62° |
| 2026-04-13 01:35 | 38.01265 | -72.41263 | 35472 ft | 470 kts | 42° |
| 2026-04-13 01:35 | 38.03603 | -72.38476 | 35483 ft | 458 kts | 31° |
| 2026-04-13 01:36 | 38.08776 | -72.33837 | 35477 ft | 456 kts | 29° |
| 2026-04-13 01:36 | 38.13823 | -72.28896 | 35468 ft | 461 kts | 33° |
| 2026-04-13 01:37 | 38.18639 | -72.23474 | 35482 ft | 463 kts | 36° |
| 2026-04-13 01:37 | 38.23300 | -72.17891 | 35485 ft | 464 kts | 37° |
| 2026-04-13 01:38 | 38.27976 | -72.12228 | 35471 ft | 464 kts | 37° |
| 2026-04-13 01:38 | 38.32660 | -72.06570 | 35475 ft | 464 kts | 37° |
| 2026-04-13 01:39 | 38.37348 | -72.00919 | 35468 ft | 464 kts | 37° |
| 2026-04-13 01:39 | 38.41899 | -71.95429 | 35479 ft | 464 kts | 36° |
| 2026-04-13 01:40 | 38.46590 | -71.89763 | 35486 ft | 465 kts | 36° |
| 2026-04-13 01:40 | 38.51284 | -71.84078 | 35472 ft | 465 kts | 37° |
| 2026-04-13 01:41 | 38.55972 | -71.78390 | 35472 ft | 465 kts | 37° |
| 2026-04-13 01:41 | 38.60655 | -71.72698 | 35482 ft | 465 kts | 36° |
| 2026-04-13 01:42 | 38.65309 | -71.67031 | 35474 ft | 465 kts | 36° |
| 2026-04-13 01:42 | 38.69994 | -71.61314 | 35477 ft | 465 kts | 37° |
| 2026-04-13 01:43 | 38.79357 | -71.49858 | 35482 ft | 466 kts | 36° |
| 2026-04-13 01:44 | 38.84008 | -71.44150 | 35474 ft | 466 kts | 36° |
| 2026-04-13 01:44 | 38.88692 | -71.38391 | 35482 ft | 466 kts | 36° |
| 2026-04-13 01:44 | 38.91015 | -71.35527 | 35836 ft | 459 kts | 36° |
| 2026-04-13 01:45 | 38.93377 | -71.32605 | 36351 ft | 450 kts | 36° |
| 2026-04-13 01:45 | 38.97813 | -71.27115 | 37220 ft | 437 kts | 35° |
| 2026-04-13 01:45 | 39.02165 | -71.21743 | 37532 ft | 436 kts | 35° |
| 2026-04-13 01:46 | 39.10978 | -71.10849 | 37461 ft | 448 kts | 36° |
| 2026-04-13 01:46 | 39.19866 | -70.99788 | 37446 ft | 455 kts | 36° |
| 2026-04-13 01:47 | 39.28895 | -70.88504 | 37486 ft | 457 kts | 36° |
| 2026-04-13 01:47 | 39.38053 | -70.77020 | 37473 ft | 459 kts | 36° |
| 2026-04-13 01:48 | 39.47195 | -70.65510 | 37485 ft | 458 kts | 36° |
| 2026-04-13 01:48 | 39.56244 | -70.54077 | 37484 ft | 457 kts | 36° |
| 2026-04-13 01:49 | 39.65307 | -70.42582 | 37473 ft | 455 kts | 36° |
| 2026-04-13 01:49 | 39.74321 | -70.31104 | 37476 ft | 453 kts | 36° |
| 2026-04-13 01:50 | 39.83316 | -70.19608 | 37512 ft | 452 kts | 36° |
| 2026-04-13 01:50 | 39.92224 | -70.08178 | 37480 ft | 453 kts | 36° |
| 2026-04-13 01:51 | 40.00954 | -69.96931 | 37502 ft | 452 kts | 35° |
| 2026-04-13 01:51 | 40.09898 | -69.85369 | 37514 ft | 453 kts | 36° |
| 2026-04-13 01:52 | 40.18841 | -69.73759 | 37499 ft | 453 kts | 36° |
| 2026-04-13 01:52 | 40.27722 | -69.62186 | 37488 ft | 454 kts | 36° |
| 2026-04-13 01:53 | 40.36666 | -69.50482 | 37530 ft | 455 kts | 36° |
| 2026-04-13 01:53 | 40.45618 | -69.38723 | 37493 ft | 455 kts | 36° |
| 2026-04-13 01:54 | 40.54561 | -69.26927 | 37497 ft | 455 kts | 36° |
| 2026-04-13 01:54 | 40.63473 | -69.15126 | 37476 ft | 455 kts | 36° |
| 2026-04-13 01:55 | 40.72301 | -69.03389 | 37508 ft | 454 kts | 36° |
| 2026-04-13 01:55 | 40.80953 | -68.91840 | 37501 ft | 453 kts | 36° |
| 2026-04-13 01:56 | 40.89797 | -68.79988 | 37511 ft | 453 kts | 36° |
| 2026-04-13 01:56 | 40.98629 | -68.68103 | 37510 ft | 452 kts | 36° |
| 2026-04-13 01:57 | 41.07366 | -68.56302 | 37499 ft | 453 kts | 35° |
| 2026-04-13 01:57 | 41.16173 | -68.44354 | 37563 ft | 452 kts | 35° |
| 2026-04-13 01:58 | 41.24977 | -68.32364 | 37507 ft | 454 kts | 35° |
| 2026-04-13 01:58 | 41.33724 | -68.20400 | 37519 ft | 454 kts | 35° |
| 2026-04-13 01:59 | 41.42519 | -68.08321 | 37494 ft | 454 kts | 35° |
| 2026-04-13 01:59 | 41.51084 | -67.96509 | 37516 ft | 454 kts | 35° |
| 2026-04-13 02:00 | 41.59863 | -67.84355 | 37508 ft | 454 kts | 35° |
| 2026-04-13 02:00 | 41.68636 | -67.72159 | 37515 ft | 456 kts | 35° |
| 2026-04-13 02:01 | 41.77355 | -67.59983 | 37499 ft | 457 kts | 35° |
| 2026-04-13 02:01 | 41.86155 | -67.47645 | 37506 ft | 458 kts | 35° |
| 2026-04-13 02:02 | 41.94951 | -67.35256 | 37514 ft | 458 kts | 35° |
| 2026-04-13 02:02 | 42.03723 | -67.22850 | 37510 ft | 459 kts | 35° |
| 2026-04-13 02:03 | 42.12501 | -67.10380 | 37550 ft | 458 kts | 34° |
| 2026-04-13 02:03 | 42.20392 | -66.97314 | 37508 ft | 482 kts | 49° |
| 2026-04-13 02:03 | 42.23249 | -66.88948 | 37511 ft | 496 kts | 56° |
| 2026-04-13 02:04 | 42.25776 | -66.80277 | 37498 ft | 497 kts | 57° |
| 2026-04-13 02:04 | 42.30846 | -66.62903 | 37500 ft | 497 kts | 57° |
| 2026-04-13 02:05 | 42.35974 | -66.45559 | 37502 ft | 497 kts | 56° |
| 2026-04-13 02:05 | 42.41042 | -66.28303 | 37494 ft | 497 kts | 57° |
| 2026-04-13 02:06 | 42.46106 | -66.10925 | 37527 ft | 496 kts | 56° |
| 2026-04-13 02:06 | 42.50924 | -65.94295 | 37470 ft | 495 kts | 57° |
| 2026-04-13 02:07 | 42.55918 | -65.76932 | 37501 ft | 494 kts | 56° |
| 2026-04-13 02:07 | 42.60853 | -65.59661 | 37486 ft | 494 kts | 56° |
| 2026-04-13 02:08 | 42.65781 | -65.42290 | 37487 ft | 493 kts | 56° |
| 2026-04-13 02:08 | 42.70697 | -65.24852 | 37505 ft | 495 kts | 56° |
| 2026-04-13 02:09 | 42.75617 | -65.07279 | 37478 ft | 499 kts | 56° |
| 2026-04-13 02:09 | 42.80379 | -64.90143 | 37478 ft | 503 kts | 56° |
| 2026-04-13 02:10 | 42.85325 | -64.72212 | 37502 ft | 507 kts | 56° |
| 2026-04-13 02:10 | 42.90270 | -64.54153 | 37525 ft | 510 kts | 57° |
| 2026-04-13 02:11 | 42.95222 | -64.35935 | 37479 ft | 512 kts | 57° |
| 2026-04-13 02:11 | 43.00099 | -64.17860 | 37475 ft | 514 kts | 58° |
| 2026-04-13 02:12 | 43.04959 | -63.99711 | 37459 ft | 513 kts | 58° |
| 2026-04-13 02:12 | 43.09757 | -63.81667 | 37483 ft | 512 kts | 58° |
| 2026-04-13 02:13 | 43.14591 | -63.63346 | 37450 ft | 511 kts | 59° |
| 2026-04-13 02:13 | 43.19386 | -63.45032 | 37489 ft | 510 kts | 59° |
| 2026-04-13 02:14 | 43.24113 | -63.26844 | 37470 ft | 510 kts | 59° |
| 2026-04-13 02:14 | 43.28844 | -63.08503 | 37498 ft | 510 kts | 59° |
| 2026-04-13 02:15 | 43.33427 | -62.90591 | 37500 ft | 509 kts | 59° |
| 2026-04-13 02:15 | 43.38051 | -62.72380 | 37530 ft | 509 kts | 59° |
| 2026-04-13 02:16 | 43.42703 | -62.53930 | 37420 ft | 511 kts | 60° |
| 2026-04-13 02:16 | 43.47318 | -62.35452 | 37453 ft | 510 kts | 60° |
| 2026-04-13 02:17 | 43.51908 | -62.16951 | 37441 ft | 511 kts | 60° |
| 2026-04-13 02:17 | 43.56358 | -61.98856 | 37455 ft | 510 kts | 60° |
| 2026-04-13 02:18 | 43.60855 | -61.80430 | 37475 ft | 511 kts | 60° |
| 2026-04-13 02:18 | 43.65360 | -61.61821 | 37430 ft | 511 kts | 60° |
| 2026-04-13 02:19 | 43.69826 | -61.43218 | 37491 ft | 511 kts | 60° |
| 2026-04-13 02:19 | 43.74278 | -61.24526 | 37451 ft | 512 kts | 60° |
| 2026-04-13 02:20 | 43.78668 | -61.05932 | 37480 ft | 513 kts | 60° |
| 2026-04-13 02:20 | 43.82966 | -60.87579 | 37518 ft | 513 kts | 61° |
| 2026-04-13 02:20 | 43.85159 | -60.78165 | 37405 ft | 516 kts | 61° |
| 2026-04-13 02:21 | 43.87353 | -60.68695 | 37395 ft | 516 kts | 61° |
| 2026-04-13 02:21 | 43.91714 | -60.49749 | 37426 ft | 516 kts | 62° |
| 2026-04-13 02:22 | 43.96022 | -60.30871 | 37423 ft | 517 kts | 62° |
| 2026-04-13 02:22 | 44.00320 | -60.11878 | 37415 ft | 518 kts | 62° |
| 2026-04-13 02:23 | 44.04494 | -59.93265 | 37407 ft | 518 kts | 62° |
| 2026-04-13 02:23 | 44.08748 | -59.74135 | 37464 ft | 519 kts | 63° |
| 2026-04-13 02:24 | 44.12957 | -59.55037 | 37442 ft | 521 kts | 63° |
| 2026-04-13 02:24 | 44.17181 | -59.35696 | 37431 ft | 523 kts | 63° |
| 2026-04-13 02:25 | 44.21383 | -59.16269 | 37457 ft | 525 kts | 63° |
| 2026-04-13 02:25 | 44.25471 | -58.97214 | 37398 ft | 528 kts | 63° |
| 2026-04-13 02:26 | 44.29657 | -58.77501 | 37368 ft | 530 kts | 64° |
| 2026-04-13 02:26 | 44.33784 | -58.57878 | 37369 ft | 531 kts | 64° |
| 2026-04-13 02:27 | 44.37916 | -58.38042 | 37340 ft | 532 kts | 64° |
| 2026-04-13 02:27 | 44.42014 | -58.18179 | 37345 ft | 531 kts | 64° |
| 2026-04-13 02:28 | 44.45974 | -57.98802 | 37339 ft | 532 kts | 65° |
| 2026-04-13 02:28 | 44.49977 | -57.79019 | 37321 ft | 531 kts | 65° |
| 2026-04-13 02:29 | 44.53970 | -57.59091 | 37338 ft | 531 kts | 65° |
| 2026-04-13 02:29 | 44.57929 | -57.39127 | 37329 ft | 532 kts | 66° |
| 2026-04-13 02:30 | 44.61867 | -57.19073 | 37288 ft | 533 kts | 66° |
| 2026-04-13 02:30 | 44.65673 | -56.99483 | 37263 ft | 533 kts | 66° |
| 2026-04-13 02:31 | 44.69508 | -56.79548 | 37291 ft | 533 kts | 67° |
| 2026-04-13 02:31 | 44.73344 | -56.59401 | 37228 ft | 533 kts | 67° |
| 2026-04-13 02:32 | 44.77143 | -56.39230 | 37252 ft | 534 kts | 68° |
| 2026-04-13 02:32 | 44.80889 | -56.19132 | 37177 ft | 535 kts | 68° |
| 2026-04-13 02:33 | 44.84534 | -55.99347 | 37286 ft | 533 kts | 68° |
| 2026-04-13 02:33 | 44.88236 | -55.79071 | 37191 ft | 537 kts | 69° |
| 2026-04-13 02:34 | 44.91920 | -55.58635 | 37177 ft | 537 kts | 69° |
| 2026-04-13 02:34 | 44.95567 | -55.38188 | 37196 ft | 538 kts | 70° |
| 2026-04-13 02:35 | 44.99167 | -55.17778 | 37124 ft | 539 kts | 70° |
| 2026-04-13 02:35 | 45.02644 | -54.97839 | 37167 ft | 538 kts | 71° |
| 2026-04-13 02:36 | 45.06196 | -54.77234 | 37061 ft | 540 kts | 71° |
| 2026-04-13 02:36 | 45.09707 | -54.56627 | 37109 ft | 539 kts | 72° |
| 2026-04-13 02:37 | 45.13154 | -54.36151 | 37148 ft | 538 kts | 72° |
| 2026-04-13 02:37 | 45.14882 | -54.25808 | 37044 ft | 540 kts | 72° |
| 2026-04-13 02:37 | 45.16596 | -54.15474 | 37058 ft | 539 kts | 72° |
| 2026-04-13 02:38 | 45.19914 | -53.95288 | 37018 ft | 540 kts | 72° |
| 2026-04-13 02:38 | 45.23281 | -53.74561 | 37042 ft | 540 kts | 73° |
| 2026-04-13 02:39 | 45.26622 | -53.53740 | 36932 ft | 542 kts | 73° |
| 2026-04-13 02:39 | 45.29895 | -53.33073 | 36988 ft | 540 kts | 73° |
| 2026-04-13 02:40 | 45.33161 | -53.12205 | 36950 ft | 541 kts | 74° |
| 2026-04-13 02:40 | 45.36308 | -52.91827 | 36954 ft | 540 kts | 75° |
| 2026-04-13 02:41 | 45.39499 | -52.70903 | 36926 ft | 542 kts | 75° |
| 2026-04-13 02:41 | 45.42632 | -52.50080 | 36917 ft | 542 kts | 75° |
| 2026-04-13 02:42 | 45.45749 | -52.29092 | 36904 ft | 542 kts | 76° |
| 2026-04-13 02:42 | 45.48828 | -52.08085 | 36923 ft | 540 kts | 76° |
| 2026-04-13 02:43 | 45.52895 | -51.88372 | 36905 ft | 537 kts | 66° |
| 2026-04-13 02:43 | 45.58188 | -51.68432 | 36912 ft | 536 kts | 67° |
| 2026-04-13 02:44 | 45.63332 | -51.48374 | 36840 ft | 538 kts | 68° |
| 2026-04-13 02:44 | 45.68432 | -51.28289 | 36826 ft | 537 kts | 68° |
| 2026-04-13 02:45 | 45.73497 | -51.08192 | 36817 ft | 537 kts | 68° |
| 2026-04-13 02:45 | 45.78410 | -50.88527 | 36782 ft | 537 kts | 69° |
| 2026-04-13 02:46 | 45.83370 | -50.68496 | 36788 ft | 537 kts | 69° |
| 2026-04-13 02:46 | 45.88334 | -50.48269 | 36775 ft | 537 kts | 69° |
| 2026-04-13 02:47 | 45.95718 | -50.17841 | 36773 ft | 538 kts | 70° |
| 2026-04-13 02:47 | 46.00439 | -49.98190 | 36760 ft | 538 kts | 70° |
| 2026-04-13 02:48 | 46.05534 | -49.77894 | 36727 ft | 540 kts | 69° |
| 2026-04-13 02:48 | 46.10624 | -49.57536 | 36726 ft | 541 kts | 70° |
| 2026-04-13 02:49 | 46.15659 | -49.37098 | 36695 ft | 541 kts | 70° |
| 2026-04-13 02:49 | 46.20659 | -49.16634 | 36743 ft | 539 kts | 71° |
| 2026-04-13 02:50 | 46.23079 | -49.06668 | 37599 ft | 525 kts | 71° |
| 2026-04-13 02:50 | 46.25309 | -48.97443 | 38380 ft | 513 kts | 71° |
| 2026-04-13 02:50 | 46.27644 | -48.87737 | 38670 ft | 512 kts | 71° |
| 2026-04-13 02:50 | 46.29992 | -48.77935 | 38658 ft | 519 kts | 72° |
| 2026-04-13 02:51 | 46.34735 | -48.57996 | 38657 ft | 530 kts | 72° |
| 2026-04-13 02:51 | 46.39538 | -48.37627 | 38616 ft | 539 kts | 72° |
| 2026-04-13 02:52 | 46.44368 | -48.16954 | 38577 ft | 545 kts | 73° |
| 2026-04-13 02:52 | 46.49046 | -47.96737 | 38617 ft | 548 kts | 73° |
| 2026-04-13 02:53 | 46.53876 | -47.75667 | 38591 ft | 551 kts | 73° |
| 2026-04-13 02:53 | 46.58687 | -47.54470 | 38560 ft | 553 kts | 73° |
| 2026-04-13 02:54 | 46.63459 | -47.33233 | 38526 ft | 552 kts | 74° |
| 2026-04-13 02:54 | 46.68152 | -47.12138 | 38555 ft | 551 kts | 75° |
| 2026-04-13 02:55 | 46.72716 | -46.91417 | 38539 ft | 550 kts | 75° |
| 2026-04-13 02:55 | 46.77350 | -46.70166 | 38531 ft | 550 kts | 75° |
| 2026-04-13 02:56 | 46.81946 | -46.48875 | 38530 ft | 549 kts | 75° |
| 2026-04-13 02:56 | 46.86498 | -46.27566 | 38521 ft | 550 kts | 76° |
| 2026-04-13 02:57 | 46.90991 | -46.06309 | 38527 ft | 552 kts | 76° |
| 2026-04-13 02:57 | 46.95384 | -45.85316 | 38522 ft | 554 kts | 76° |
| 2026-04-13 02:58 | 46.99858 | -45.63702 | 38530 ft | 556 kts | 76° |
| 2026-04-13 02:58 | 47.04299 | -45.42022 | 38502 ft | 556 kts | 76° |
| 2026-04-13 02:59 | 47.08676 | -45.20413 | 38508 ft | 556 kts | 76° |
| 2026-04-13 02:59 | 47.12926 | -44.99210 | 38536 ft | 555 kts | 77° |
| 2026-04-13 03:00 | 47.17239 | -44.77445 | 38527 ft | 555 kts | 77° |
| 2026-04-13 03:00 | 47.21502 | -44.55695 | 38537 ft | 553 kts | 77° |
| 2026-04-13 03:01 | 47.25687 | -44.34103 | 38524 ft | 551 kts | 78° |
| 2026-04-13 03:01 | 47.29839 | -44.12430 | 38538 ft | 549 kts | 78° |
| 2026-04-13 03:02 | 47.33838 | -43.91322 | 38528 ft | 548 kts | 78° |
| 2026-04-13 03:02 | 47.37213 | -43.73318 | 38547 ft | 547 kts | 78° |
| 2026-04-13 03:03 | 47.41870 | -43.48191 | 38540 ft | 547 kts | 79° |
| 2026-04-13 03:03 | 47.45846 | -43.26460 | 38549 ft | 547 kts | 79° |
| 2026-04-13 03:04 | 47.49773 | -43.04744 | 38556 ft | 548 kts | 79° |
| 2026-04-13 03:04 | 47.52917 | -42.87169 | 38562 ft | 548 kts | 79° |
| 2026-04-13 03:05 | 47.56783 | -42.65317 | 38551 ft | 549 kts | 80° |
| 2026-04-13 03:05 | 47.60608 | -42.43430 | 38560 ft | 550 kts | 80° |
| 2026-04-13 03:06 | 47.64376 | -42.21599 | 38550 ft | 550 kts | 80° |
| 2026-04-13 03:06 | 47.68097 | -41.99769 | 38559 ft | 550 kts | 80° |
| 2026-04-13 03:07 | 47.71730 | -41.78192 | 38570 ft | 550 kts | 81° |
| 2026-04-13 03:07 | 47.75397 | -41.56126 | 38560 ft | 550 kts | 81° |
| 2026-04-13 03:08 | 47.79021 | -41.34042 | 38555 ft | 549 kts | 81° |
| 2026-04-13 03:08 | 47.82570 | -41.12122 | 38575 ft | 549 kts | 81° |
| 2026-04-13 03:09 | 47.86013 | -40.90579 | 38557 ft | 549 kts | 81° |
| 2026-04-13 03:09 | 47.89499 | -40.68477 | 38561 ft | 548 kts | 82° |
| 2026-04-13 03:10 | 47.92942 | -40.46350 | 38499 ft | 548 kts | 82° |
| 2026-04-13 03:10 | 47.96336 | -40.24232 | 38567 ft | 547 kts | 82° |
| 2026-04-13 03:11 | 47.99684 | -40.02201 | 38539 ft | 550 kts | 81° |
| 2026-04-13 03:11 | 48.04646 | -39.81144 | 38539 ft | 557 kts | 72° |
| 2026-04-13 03:12 | 48.10159 | -39.59490 | 38534 ft | 557 kts | 73° |
| 2026-04-13 03:12 | 48.15484 | -39.37890 | 38547 ft | 557 kts | 73° |
| 2026-04-13 03:13 | 48.20813 | -39.16092 | 38528 ft | 557 kts | 73° |
| 2026-04-13 03:13 | 48.25967 | -38.94823 | 38528 ft | 557 kts | 73° |
| 2026-04-13 03:14 | 48.31212 | -38.72961 | 38534 ft | 557 kts | 74° |
| 2026-04-13 03:14 | 48.36424 | -38.51013 | 38527 ft | 558 kts | 74° |
| 2026-04-13 03:15 | 48.41569 | -38.29137 | 38529 ft | 558 kts | 74° |
| 2026-04-13 03:15 | 48.46705 | -38.07072 | 38504 ft | 559 kts | 74° |
| 2026-04-13 03:16 | 48.51678 | -37.85487 | 38513 ft | 559 kts | 74° |
| 2026-04-13 03:16 | 48.56737 | -37.63306 | 38501 ft | 559 kts | 75° |
| 2026-04-13 03:17 | 48.61754 | -37.41074 | 38501 ft | 559 kts | 75° |
| 2026-04-13 03:17 | 48.66695 | -37.18951 | 38529 ft | 558 kts | 75° |
| 2026-04-13 03:18 | 48.71515 | -36.97138 | 38586 ft | 559 kts | 75° |
| 2026-04-13 03:18 | 48.76427 | -36.74668 | 38509 ft | 563 kts | 75° |
| 2026-04-13 03:19 | 48.81320 | -36.52047 | 38499 ft | 565 kts | 75° |
| 2026-04-13 03:19 | 48.86141 | -36.29514 | 38490 ft | 566 kts | 75° |
| 2026-04-13 03:20 | 48.90958 | -36.06743 | 38487 ft | 566 kts | 75° |
| 2026-04-13 03:20 | 48.95616 | -35.84476 | 38481 ft | 566 kts | 75° |
| 2026-04-13 03:21 | 49.00337 | -35.61652 | 38474 ft | 566 kts | 75° |
| 2026-04-13 03:21 | 49.05031 | -35.38696 | 38510 ft | 568 kts | 75° |
| 2026-04-13 03:22 | 49.09672 | -35.15726 | 38446 ft | 574 kts | 75° |
| 2026-04-13 03:22 | 49.14217 | -34.92981 | 38476 ft | 574 kts | 75° |
| 2026-04-13 03:23 | 49.18836 | -34.69584 | 38469 ft | 576 kts | 75° |
| 2026-04-13 03:23 | 49.23391 | -34.46231 | 38465 ft | 577 kts | 75° |
| 2026-04-13 03:24 | 49.27929 | -34.22677 | 38458 ft | 577 kts | 75° |
| 2026-04-13 03:24 | 49.32345 | -33.99469 | 38458 ft | 576 kts | 76° |
| 2026-04-13 03:25 | 49.36734 | -33.76113 | 38414 ft | 575 kts | 75° |
| 2026-04-13 03:25 | 49.41142 | -33.52359 | 38468 ft | 581 kts | 76° |
| 2026-04-13 03:26 | 49.45518 | -33.28470 | 38468 ft | 587 kts | 76° |
| 2026-04-13 03:26 | 49.49906 | -33.04197 | 38456 ft | 588 kts | 76° |
| 2026-04-13 03:27 | 49.54098 | -32.80708 | 38434 ft | 579 kts | 76° |
| 2026-04-13 03:27 | 49.58291 | -32.56891 | 38462 ft | 573 kts | 76° |
| 2026-04-13 03:28 | 49.62411 | -32.33173 | 38463 ft | 576 kts | 76° |
| 2026-04-13 03:28 | 49.66496 | -32.09331 | 38456 ft | 580 kts | 76° |
| 2026-04-13 03:29 | 49.70473 | -31.85814 | 38393 ft | 582 kts | 76° |
| 2026-04-13 03:29 | 49.74517 | -31.61556 | 38440 ft | 584 kts | 76° |
| 2026-04-13 03:30 | 49.78527 | -31.37165 | 38450 ft | 585 kts | 76° |
| 2026-04-13 03:30 | 49.82459 | -31.12892 | 38452 ft | 585 kts | 76° |
| 2026-04-13 03:31 | 49.86277 | -30.88975 | 38455 ft | 584 kts | 76° |
| 2026-04-13 03:31 | 49.90113 | -30.64597 | 38436 ft | 581 kts | 76° |
| 2026-04-13 03:32 | 49.93880 | -30.40293 | 38444 ft | 577 kts | 76° |
| 2026-04-13 03:32 | 49.97545 | -30.16284 | 38428 ft | 573 kts | 76° |
| 2026-04-13 03:33 | 50.01040 | -29.92984 | 38402 ft | 571 kts | 76° |
| 2026-04-13 03:33 | 50.03993 | -29.72401 | 38443 ft | 570 kts | 76° |
| 2026-04-13 03:34 | 50.05706 | -29.60334 | 38445 ft | 572 kts | 76° |
| 2026-04-13 03:34 | 50.07414 | -29.48253 | 38443 ft | 572 kts | 76° |
| 2026-04-13 03:35 | 50.09104 | -29.36211 | 38433 ft | 573 kts | 76° |
| 2026-04-13 03:35 | 50.10791 | -29.24096 | 38432 ft | 573 kts | 76° |
| 2026-04-13 03:36 | 50.12467 | -29.11948 | 38434 ft | 573 kts | 76° |
| 2026-04-13 03:36 | 50.14118 | -28.99887 | 38429 ft | 573 kts | 77° |
| 2026-04-13 03:37 | 50.15726 | -28.88042 | 38431 ft | 573 kts | 77° |
| 2026-04-13 03:37 | 50.17361 | -28.75894 | 38436 ft | 572 kts | 77° |
| 2026-04-13 03:38 | 50.18983 | -28.63740 | 38456 ft | 571 kts | 77° |
| 2026-04-13 03:38 | 50.20588 | -28.51615 | 38436 ft | 569 kts | 77° |
| 2026-04-13 03:39 | 50.22174 | -28.39527 | 38431 ft | 567 kts | 77° |
| 2026-04-13 03:39 | 50.23733 | -28.27550 | 38429 ft | 566 kts | 77° |
| 2026-04-13 03:40 | 50.25284 | -28.15523 | 38439 ft | 564 kts | 77° |
| 2026-04-13 03:40 | 50.26820 | -28.03514 | 38405 ft | 563 kts | 77° |
| 2026-04-13 03:41 | 50.28304 | -27.91812 | 38431 ft | 563 kts | 77° |
| 2026-04-13 03:41 | 50.29806 | -27.79864 | 38435 ft | 565 kts | 77° |
| 2026-04-13 03:42 | 50.31311 | -27.67786 | 38448 ft | 566 kts | 77° |
| 2026-04-13 03:43 | 50.33544 | -27.49659 | 38423 ft | 565 kts | 77° |
| 2026-04-13 03:43 | 50.35005 | -27.37662 | 38424 ft | 564 kts | 77° |
| 2026-04-13 03:44 | 50.36461 | -27.25596 | 38440 ft | 563 kts | 77° |
| 2026-04-13 03:44 | 50.37901 | -27.13552 | 38420 ft | 561 kts | 77° |
| 2026-04-13 03:45 | 50.39324 | -27.01546 | 38419 ft | 560 kts | 77° |
| 2026-04-13 03:45 | 50.40696 | -26.89858 | 38429 ft | 559 kts | 77° |
| 2026-04-13 03:46 | 50.42079 | -26.77967 | 38438 ft | 558 kts | 77° |
| 2026-04-13 03:46 | 50.43457 | -26.66013 | 38425 ft | 557 kts | 77° |
| 2026-04-13 03:47 | 50.44820 | -26.54073 | 38428 ft | 556 kts | 78° |
| 2026-04-13 03:47 | 50.46169 | -26.42135 | 38430 ft | 555 kts | 78° |
| 2026-04-13 03:48 | 50.47496 | -26.30281 | 38443 ft | 555 kts | 78° |
| 2026-04-13 03:48 | 50.48819 | -26.18354 | 38430 ft | 554 kts | 78° |
| 2026-04-13 03:49 | 50.50129 | -26.06429 | 38428 ft | 554 kts | 78° |
| 2026-04-13 03:49 | 50.51379 | -25.94933 | 38430 ft | 554 kts | 78° |
| 2026-04-13 03:50 | 50.52663 | -25.83005 | 38439 ft | 553 kts | 78° |
| 2026-04-13 03:50 | 50.53926 | -25.71160 | 38440 ft | 553 kts | 78° |
| 2026-04-13 03:51 | 50.55184 | -25.59241 | 38435 ft | 553 kts | 78° |
| 2026-04-13 03:51 | 50.56429 | -25.47327 | 38444 ft | 552 kts | 78° |
| 2026-04-13 03:52 | 50.58266 | -25.29516 | 38449 ft | 552 kts | 78° |
| 2026-04-13 03:52 | 50.59477 | -25.17610 | 38444 ft | 551 kts | 78° |
| 2026-04-13 03:53 | 50.60677 | -25.05698 | 38455 ft | 550 kts | 79° |
| 2026-04-13 03:53 | 50.61832 | -24.94104 | 38470 ft | 550 kts | 79° |
| 2026-04-13 03:54 | 50.62997 | -24.82293 | 38455 ft | 549 kts | 79° |
| 2026-04-13 03:54 | 50.64155 | -24.70420 | 38464 ft | 548 kts | 79° |
| 2026-04-13 03:55 | 50.65299 | -24.58564 | 38477 ft | 547 kts | 79° |
| 2026-04-13 03:55 | 50.66431 | -24.46704 | 38477 ft | 547 kts | 79° |
| 2026-04-13 03:56 | 50.67550 | -24.34843 | 38486 ft | 547 kts | 79° |
| 2026-04-13 03:56 | 50.68651 | -24.23039 | 38463 ft | 548 kts | 79° |
| 2026-04-13 03:57 | 50.69748 | -24.11153 | 38483 ft | 548 kts | 79° |
| 2026-04-13 03:57 | 50.70807 | -23.99534 | 38513 ft | 549 kts | 79° |
| 2026-04-13 03:58 | 50.71876 | -23.87680 | 38499 ft | 550 kts | 79° |
| 2026-04-13 03:58 | 50.72940 | -23.75734 | 38509 ft | 550 kts | 79° |
| 2026-04-13 03:59 | 50.73991 | -23.63797 | 38521 ft | 549 kts | 79° |
| 2026-04-13 03:59 | 50.75030 | -23.51853 | 38539 ft | 548 kts | 79° |
| 2026-04-13 04:00 | 50.76053 | -23.39934 | 38528 ft | 547 kts | 80° |
| 2026-04-13 04:00 | 50.77056 | -23.28121 | 38527 ft | 546 kts | 80° |
| 2026-04-13 04:01 | 50.78051 | -23.16244 | 38535 ft | 545 kts | 80° |
| 2026-04-13 04:01 | 50.79032 | -23.04388 | 38557 ft | 544 kts | 80° |
| 2026-04-13 04:02 | 50.79976 | -22.92849 | 38543 ft | 543 kts | 80° |
| 2026-04-13 04:02 | 50.80930 | -22.81019 | 38563 ft | 542 kts | 80° |
| 2026-04-13 04:03 | 50.81867 | -22.69265 | 38577 ft | 542 kts | 80° |
| 2026-04-13 04:03 | 50.82797 | -22.57434 | 38578 ft | 543 kts | 80° |
| 2026-04-13 04:04 | 50.83716 | -22.45585 | 38577 ft | 543 kts | 81° |
| 2026-04-13 04:04 | 50.84624 | -22.33726 | 38577 ft | 543 kts | 81° |
| 2026-04-13 04:05 | 50.85512 | -22.21956 | 38591 ft | 543 kts | 81° |
| 2026-04-13 04:05 | 50.86396 | -22.10089 | 38632 ft | 543 kts | 81° |
| 2026-04-13 04:06 | 50.87244 | -21.98532 | 38603 ft | 543 kts | 81° |
| 2026-04-13 04:06 | 50.88104 | -21.86662 | 38618 ft | 543 kts | 81° |
| 2026-04-13 04:07 | 50.88945 | -21.74872 | 38627 ft | 542 kts | 81° |
| 2026-04-13 04:07 | 50.89779 | -21.63004 | 38645 ft | 542 kts | 81° |
| 2026-04-13 04:08 | 50.90600 | -21.51151 | 38646 ft | 541 kts | 81° |
| 2026-04-13 04:08 | 50.91409 | -21.39302 | 38641 ft | 540 kts | 81° |
| 2026-04-13 04:09 | 50.92204 | -21.27475 | 38653 ft | 540 kts | 81° |
| 2026-04-13 04:09 | 50.92982 | -21.15726 | 38682 ft | 539 kts | 81° |
| 2026-04-13 04:10 | 50.93751 | -21.03915 | 38664 ft | 538 kts | 81° |
| 2026-04-13 04:10 | 50.94489 | -20.92417 | 38666 ft | 537 kts | 81° |
| 2026-04-13 04:11 | 50.95233 | -20.80634 | 38666 ft | 536 kts | 81° |
| 2026-04-13 04:11 | 50.95958 | -20.68960 | 38699 ft | 535 kts | 82° |
| 2026-04-13 04:12 | 50.96676 | -20.57209 | 38689 ft | 535 kts | 82° |
| 2026-04-13 04:12 | 50.97381 | -20.45466 | 38685 ft | 535 kts | 82° |
| 2026-04-13 04:13 | 50.98075 | -20.33723 | 38693 ft | 535 kts | 82° |
| 2026-04-13 04:13 | 50.98752 | -20.22043 | 38685 ft | 535 kts | 82° |
| 2026-04-13 04:14 | 50.99424 | -20.10288 | 38714 ft | 536 kts | 82° |
| 2026-04-13 04:14 | 51.00048 | -19.98811 | 38718 ft | 537 kts | 84° |
| 2026-04-13 04:15 | 51.00361 | -19.86940 | 38715 ft | 539 kts | 86° |
| 2026-04-13 04:15 | 51.00544 | -19.75043 | 38723 ft | 539 kts | 86° |
| 2026-04-13 04:16 | 51.00726 | -19.63219 | 38721 ft | 539 kts | 86° |
| 2026-04-13 04:16 | 51.00929 | -19.51310 | 38725 ft | 539 kts | 86° |
| 2026-04-13 04:17 | 51.01131 | -19.39403 | 38726 ft | 539 kts | 86° |
| 2026-04-13 04:17 | 51.01321 | -19.27503 | 38725 ft | 539 kts | 86° |
| 2026-04-13 04:18 | 51.01495 | -19.15683 | 38749 ft | 540 kts | 86° |
| 2026-04-13 04:18 | 51.01657 | -19.03760 | 38737 ft | 540 kts | 86° |
| 2026-04-13 04:19 | 51.01804 | -18.92163 | 38737 ft | 540 kts | 86° |
| 2026-04-13 04:19 | 51.01942 | -18.80231 | 38757 ft | 540 kts | 86° |
| 2026-04-13 04:20 | 51.02068 | -18.68378 | 38757 ft | 541 kts | 86° |
| 2026-04-13 04:20 | 51.02182 | -18.56439 | 38755 ft | 541 kts | 86° |
| 2026-04-13 04:21 | 51.02285 | -18.44501 | 38756 ft | 541 kts | 87° |
| 2026-04-13 04:21 | 51.02375 | -18.32561 | 38768 ft | 541 kts | 87° |
| 2026-04-13 04:22 | 51.02453 | -18.20619 | 38777 ft | 541 kts | 87° |
| 2026-04-13 04:22 | 51.02521 | -18.08249 | 38766 ft | 541 kts | 87° |
| 2026-04-13 04:23 | 51.02614 | -17.85066 | 38772 ft | 540 kts | 87° |
| 2026-04-13 04:23 | 51.02660 | -17.61200 | 38795 ft | 540 kts | 87° |
| 2026-04-13 04:24 | 51.02659 | -17.37372 | 38789 ft | 539 kts | 87° |
| 2026-04-13 04:24 | 51.02610 | -17.13755 | 38827 ft | 537 kts | 88° |
| 2026-04-13 04:25 | 51.02542 | -16.96374 | 38835 ft | 535 kts | 88° |
| 2026-04-13 04:25 | 51.02480 | -16.83990 | 38812 ft | 536 kts | 88° |
| 2026-04-13 04:26 | 51.02385 | -16.68776 | 38819 ft | 536 kts | 88° |
| 2026-04-13 04:26 | 51.02297 | -16.57011 | 38817 ft | 536 kts | 88° |
| 2026-04-13 04:27 | 51.02186 | -16.43928 | 38816 ft | 535 kts | 88° |
| 2026-04-13 04:27 | 51.02073 | -16.32122 | 38819 ft | 535 kts | 88° |
| 2026-04-13 04:28 | 51.01948 | -16.20310 | 38833 ft | 535 kts | 88° |
| 2026-04-13 04:28 | 51.01812 | -16.08509 | 38823 ft | 535 kts | 88° |
| 2026-04-13 04:29 | 51.01668 | -15.97101 | 38830 ft | 534 kts | 88° |
| 2026-04-13 04:29 | 51.01509 | -15.85306 | 38833 ft | 534 kts | 89° |
| 2026-04-13 04:30 | 51.01263 | -15.68647 | 38848 ft | 535 kts | 89° |
| 2026-04-13 04:30 | 51.00442 | -15.21674 | 38867 ft | 534 kts | 89° |
| 2026-04-13 04:31 | 51.00035 | -14.76382 | 38853 ft | 534 kts | 86° |
| 2026-04-13 04:31 | 51.00087 | -14.29265 | 38881 ft | 534 kts | 87° |
| 2026-04-13 04:32 | 51.00264 | -13.83487 | 38863 ft | 534 kts | 84° |
| 2026-04-13 04:32 | 51.01324 | -13.36352 | 38880 ft | 534 kts | 85° |
| 2026-04-13 04:33 | 51.02061 | -12.90295 | 38890 ft | 535 kts | 85° |
| 2026-04-13 04:33 | 51.02630 | -12.43263 | 38907 ft | 537 kts | 86° |
| 2026-04-13 04:34 | 51.03006 | -11.96941 | 38904 ft | 539 kts | 86° |
| 2026-04-13 04:34 | 51.03125 | -11.73254 | 38856 ft | 527 kts | 86° |
| 2026-04-13 04:34 | 51.03200 | -11.49943 | 38923 ft | 531 kts | 86° |
| 2026-04-13 04:35 | 51.03207 | -11.02656 | 38894 ft | 544 kts | 86° |
| 2026-04-13 04:35 | 51.03022 | -10.56148 | 38884 ft | 533 kts | 86° |
| 2026-04-13 04:36 | 51.02658 | -10.09757 | 38902 ft | 520 kts | 87° |
| 2026-04-13 04:36 | 51.02133 | -9.64787 | 38936 ft | 533 kts | 88° |
| 2026-04-13 04:37 | 51.01411 | -9.18830 | 38889 ft | 531 kts | 88° |
| 2026-04-13 04:37 | 51.00529 | -8.73652 | 38892 ft | 517 kts | 89° |
| 2026-04-13 04:38 | 51.00004 | -8.27612 | 38948 ft | 529 kts | 86° |
| 2026-04-13 04:38 | 51.00466 | -7.81908 | 38885 ft | 529 kts | 83° |
| 2026-04-13 04:39 | 51.01808 | -7.35903 | 38935 ft | 515 kts | 84° |
| 2026-04-13 04:39 | 51.02858 | -6.91431 | 39031 ft | 525 kts | 85° |
| 2026-04-13 04:40 | 51.03771 | -6.44952 | 38951 ft | 529 kts | 85° |
| 2026-04-13 04:40 | 51.04488 | -5.99392 | 38907 ft | 513 kts | 86° |
| 2026-04-13 04:41 | 51.05021 | -5.54842 | 39003 ft | 520 kts | 87° |
| 2026-04-13 04:41 | 51.05393 | -5.08399 | 38969 ft | 526 kts | 88° |
| 2026-04-13 04:42 | 51.05577 | -4.63848 | 38938 ft | 513 kts | 88° |
| 2026-04-13 04:43 | 51.05438 | -3.74534 | 38970 ft | 526 kts | 90° |
| 2026-04-13 04:43 | 51.05100 | -3.28553 | 38924 ft | 512 kts | 91° |
| 2026-04-13 04:44 | 51.04617 | -2.85244 | 38975 ft | 510 kts | 91° |
| 2026-04-13 04:44 | 51.03932 | -2.39453 | 38977 ft | 523 kts | 92° |
| 2026-04-13 04:45 | 51.03321 | -1.94912 | 38830 ft | 512 kts | 88° |
| 2026-04-13 04:45 | 51.04295 | -1.72493 | 38950 ft | 504 kts | 87° |
| 2026-04-13 04:45 | 51.05163 | -1.50703 | 38981 ft | 510 kts | 88° |
| 2026-04-13 04:46 | 51.06792 | -1.04898 | 39020 ft | 522 kts | 89° |
| 2026-04-13 04:46 | 51.08167 | -0.61863 | 38944 ft | 510 kts | 89° |
| 2026-04-13 04:47 | 51.09427 | -0.16955 | 38921 ft | 510 kts | 90° |
| 2026-04-13 04:47 | 51.10502 | 0.27240 | 38816 ft | 520 kts | 90° |
| 2026-04-13 04:48 | 51.11436 | 0.72822 | 38828 ft | 507 kts | 91° |
| 2026-04-13 04:48 | 51.11828 | 0.95130 | 38956 ft | 501 kts | 91° |
| 2026-04-13 04:48 | 51.12154 | 1.15977 | 39024 ft | 502 kts | 92° |
| 2026-04-13 04:49 | 51.12733 | 1.60832 | 38997 ft | 513 kts | 92° |
| 2026-04-13 04:49 | 51.12960 | 2.04124 | 38970 ft | 491 kts | 98° |
| 2026-04-13 04:50 | 51.10529 | 2.47148 | 38977 ft | 496 kts | 99° |
| 2026-04-13 04:50 | 51.04957 | 2.90365 | 38982 ft | 503 kts | 111° |
| 2026-04-13 04:51 | 50.97381 | 3.31226 | 38933 ft | 495 kts | 111° |
| 2026-04-13 04:51 | 50.89574 | 3.72566 | 38970 ft | 488 kts | 111° |
| 2026-04-13 04:52 | 50.81951 | 4.12078 | 39002 ft | 500 kts | 111° |
| 2026-04-13 04:52 | 50.77226 | 4.36187 | 38987 ft | 494 kts | 111° |
| 2026-04-13 04:53 | 50.76206 | 4.41349 | 38842 ft | 493 kts | 111° |
| 2026-04-13 04:53 | 50.75186 | 4.46499 | 38842 ft | 488 kts | 111° |
| 2026-04-13 04:53 | 50.73135 | 4.56797 | 38347 ft | 495 kts | 112° |
| 2026-04-13 04:54 | 50.72102 | 4.61970 | 37921 ft | 492 kts | 112° |
| 2026-04-13 04:54 | 50.71079 | 4.67092 | 37483 ft | 488 kts | 113° |
| 2026-04-13 04:54 | 50.70073 | 4.72117 | 37068 ft | 484 kts | 114° |
| 2026-04-13 04:54 | 50.69057 | 4.77167 | 36683 ft | 481 kts | 114° |
| 2026-04-13 04:55 | 50.68046 | 4.82181 | 36306 ft | 479 kts | 114° |
| 2026-04-13 04:55 | 50.67036 | 4.87170 | 36044 ft | 479 kts | 115° |
| 2026-04-13 04:55 | 50.66013 | 4.92195 | 35803 ft | 484 kts | 115° |
| 2026-04-13 04:55 | 50.64978 | 4.97264 | 35575 ft | 486 kts | 115° |
| 2026-04-13 04:56 | 50.64004 | 5.02042 | 35369 ft | 485 kts | 115° |
| 2026-04-13 04:56 | 50.62975 | 5.07085 | 35155 ft | 483 kts | 116° |
| 2026-04-13 04:56 | 50.61960 | 5.12048 | 34934 ft | 481 kts | 116° |
| 2026-04-13 04:56 | 50.60934 | 5.17051 | 34671 ft | 480 kts | 116° |
| 2026-04-13 04:57 | 50.59907 | 5.22040 | 34446 ft | 479 kts | 116° |
| 2026-04-13 04:57 | 50.58874 | 5.27043 | 34227 ft | 479 kts | 116° |
| 2026-04-13 04:57 | 50.57843 | 5.32018 | 34018 ft | 479 kts | 117° |
| 2026-04-13 04:57 | 50.56808 | 5.37000 | 33786 ft | 480 kts | 117° |
| 2026-04-13 04:58 | 50.55767 | 5.41994 | 33537 ft | 480 kts | 117° |
| 2026-04-13 04:58 | 50.54740 | 5.46922 | 33289 ft | 480 kts | 117° |
| 2026-04-13 04:58 | 50.53699 | 5.51909 | 33058 ft | 480 kts | 117° |
| 2026-04-13 04:58 | 50.52657 | 5.56890 | 32806 ft | 480 kts | 117° |
| 2026-04-13 04:59 | 50.51611 | 5.61871 | 32543 ft | 480 kts | 116° |
| 2026-04-13 04:59 | 50.50595 | 5.66893 | 32302 ft | 482 kts | 115° |
| 2026-04-13 04:59 | 50.49643 | 5.71947 | 32068 ft | 483 kts | 114° |
| 2026-04-13 04:59 | 50.48718 | 5.77010 | 31842 ft | 484 kts | 114° |
| 2026-04-13 05:00 | 50.47791 | 5.82099 | 31635 ft | 484 kts | 114° |
| 2026-04-13 05:00 | 50.47069 | 5.86031 | 31478 ft | 484 kts | 114° |
| 2026-04-13 05:00 | 50.46141 | 5.91029 | 31287 ft | 484 kts | 114° |
| 2026-04-13 05:00 | 50.45185 | 5.96114 | 31121 ft | 484 kts | 114° |
| 2026-04-13 05:01 | 50.44293 | 6.00828 | 30953 ft | 484 kts | 114° |
| 2026-04-13 05:01 | 50.43331 | 6.05892 | 30737 ft | 484 kts | 114° |
| 2026-04-13 05:01 | 50.42369 | 6.10947 | 30565 ft | 484 kts | 114° |
| 2026-04-13 05:01 | 50.41404 | 6.16009 | 30394 ft | 484 kts | 114° |
| 2026-04-13 05:02 | 50.40452 | 6.20988 | 30226 ft | 483 kts | 114° |
| 2026-04-13 05:02 | 50.39488 | 6.26023 | 29930 ft | 483 kts | 114° |
| 2026-04-13 05:02 | 50.38520 | 6.31061 | 29377 ft | 480 kts | 113° |
| 2026-04-13 05:02 | 50.37565 | 6.36027 | 28695 ft | 472 kts | 114° |
| 2026-04-13 05:03 | 50.36663 | 6.40966 | 28022 ft | 470 kts | 110° |
| 2026-04-13 05:03 | 50.36035 | 6.45988 | 27362 ft | 471 kts | 103° |
| 2026-04-13 05:03 | 50.35701 | 6.51018 | 26673 ft | 468 kts | 100° |
| 2026-04-13 05:03 | 50.35423 | 6.56074 | 26045 ft | 463 kts | 100° |
| 2026-04-13 05:04 | 50.35147 | 6.61077 | 25429 ft | 459 kts | 100° |
| 2026-04-13 05:04 | 50.34852 | 6.66040 | 24822 ft | 455 kts | 100° |
| 2026-04-13 05:04 | 50.34542 | 6.70936 | 24233 ft | 451 kts | 100° |
| 2026-04-13 05:04 | 50.34227 | 6.75808 | 23646 ft | 448 kts | 100° |
| 2026-04-13 05:05 | 50.33909 | 6.80641 | 22965 ft | 443 kts | 102° |
| 2026-04-13 05:05 | 50.33328 | 6.85324 | 22279 ft | 435 kts | 109° |
| 2026-04-13 05:05 | 50.32468 | 6.89777 | 21655 ft | 429 kts | 114° |
| 2026-04-13 05:05 | 50.31340 | 6.94037 | 20972 ft | 421 kts | 119° |
| 2026-04-13 05:06 | 50.30084 | 6.98151 | 20331 ft | 417 kts | 120° |
| 2026-04-13 05:06 | 50.28911 | 7.02007 | 19755 ft | 413 kts | 119° |
| 2026-04-13 05:06 | 50.27707 | 7.06004 | 19144 ft | 409 kts | 119° |
| 2026-04-13 05:06 | 50.26503 | 7.10030 | 18549 ft | 405 kts | 119° |
| 2026-04-13 05:07 | 50.25314 | 7.14003 | 17917 ft | 402 kts | 119° |
| 2026-04-13 05:07 | 50.24135 | 7.17939 | 17248 ft | 398 kts | 119° |
| 2026-04-13 05:07 | 50.22967 | 7.21834 | 16605 ft | 395 kts | 119° |
| 2026-04-13 05:07 | 50.21817 | 7.25663 | 15998 ft | 392 kts | 119° |
| 2026-04-13 05:08 | 50.20656 | 7.29517 | 15362 ft | 390 kts | 119° |
| 2026-04-13 05:08 | 50.19524 | 7.33349 | 14733 ft | 388 kts | 116° |
| 2026-04-13 05:08 | 50.18558 | 7.37268 | 14115 ft | 387 kts | 114° |
| 2026-04-13 05:08 | 50.17631 | 7.41202 | 13514 ft | 385 kts | 114° |
| 2026-04-13 05:09 | 50.16720 | 7.45071 | 12875 ft | 384 kts | 114° |
| 2026-04-13 05:09 | 50.15800 | 7.48958 | 12213 ft | 382 kts | 114° |
| 2026-04-13 05:09 | 50.14875 | 7.52839 | 11595 ft | 380 kts | 114° |
| 2026-04-13 05:09 | 50.13957 | 7.56680 | 11172 ft | 374 kts | 114° |
| 2026-04-13 05:10 | 50.13069 | 7.60386 | 10993 ft | 361 kts | 114° |
| 2026-04-13 05:10 | 50.12212 | 7.63959 | 10969 ft | 343 kts | 114° |
| 2026-04-13 05:10 | 50.11158 | 7.67136 | 10957 ft | 316 kts | 130° |
| 2026-04-13 05:10 | 50.09686 | 7.69508 | 10948 ft | 296 kts | 144° |
| 2026-04-13 05:11 | 50.08046 | 7.71200 | 10961 ft | 278 kts | 153° |
| 2026-04-13 05:11 | 50.06388 | 7.72626 | 10958 ft | 269 kts | 154° |
| 2026-04-13 05:11 | 50.04749 | 7.74012 | 10913 ft | 268 kts | 154° |
| 2026-04-13 05:11 | 50.03096 | 7.75418 | 10633 ft | 274 kts | 153° |
| 2026-04-13 05:12 | 50.01415 | 7.76865 | 10264 ft | 276 kts | 153° |
| 2026-04-13 05:12 | 49.99747 | 7.78291 | 9881 ft | 275 kts | 154° |
| 2026-04-13 05:12 | 49.98081 | 7.79734 | 9494 ft | 274 kts | 153° |
| 2026-04-13 05:12 | 49.96424 | 7.81177 | 9103 ft | 273 kts | 153° |
| 2026-04-13 05:13 | 49.94745 | 7.82504 | 8707 ft | 269 kts | 159° |
| 2026-04-13 05:13 | 49.92993 | 7.83527 | 8326 ft | 269 kts | 161° |
| 2026-04-13 05:13 | 49.91270 | 7.84483 | 7915 ft | 262 kts | 160° |
| 2026-04-13 05:13 | 49.89631 | 7.85476 | 7432 ft | 245 kts | 150° |
| 2026-04-13 05:14 | 49.88454 | 7.87246 | 6930 ft | 234 kts | 121° |
| 2026-04-13 05:14 | 49.87944 | 7.89609 | 6465 ft | 230 kts | 101° |
| 2026-04-13 05:14 | 49.87873 | 7.92042 | 5835 ft | 228 kts | 82° |
| 2026-04-13 05:14 | 49.88302 | 7.94351 | 5394 ft | 218 kts | 71° |
| 2026-04-13 05:15 | 49.88852 | 7.96524 | 5147 ft | 215 kts | 69° |
| 2026-04-13 05:15 | 49.89405 | 7.98668 | 4895 ft | 214 kts | 69° |
| 2026-04-13 05:15 | 49.89921 | 8.00685 | 4660 ft | 212 kts | 69° |
| 2026-04-13 05:15 | 49.90460 | 8.02806 | 4391 ft | 211 kts | 69° |
| 2026-04-13 05:16 | 49.90931 | 8.04680 | 4143 ft | 209 kts | 69° |
| 2026-04-13 05:16 | 49.91453 | 8.06773 | 3915 ft | 207 kts | 69° |
| 2026-04-13 05:16 | 49.91960 | 8.08819 | 3791 ft | 201 kts | 69° |
| 2026-04-13 05:16 | 49.92464 | 8.10858 | 3571 ft | 201 kts | 69° |
| 2026-04-13 05:17 | 49.92980 | 8.12826 | 3361 ft | 197 kts | 68° |
| 2026-04-13 05:17 | 49.93485 | 8.14817 | 3196 ft | 194 kts | 69° |
| 2026-04-13 05:17 | 49.93958 | 8.16729 | 3177 ft | 191 kts | 69° |
| 2026-04-13 05:17 | 49.94410 | 8.18556 | 3168 ft | 184 kts | 69° |
| 2026-04-13 05:18 | 49.94860 | 8.20379 | 3168 ft | 177 kts | 69° |
| 2026-04-13 05:18 | 49.95305 | 8.22181 | 3191 ft | 177 kts | 69° |
| 2026-04-13 05:18 | 49.95746 | 8.23963 | 3152 ft | 175 kts | 69° |
| 2026-04-13 05:18 | 49.96168 | 8.25672 | 2935 ft | 165 kts | 69° |
| 2026-04-13 05:19 | 49.96572 | 8.27315 | 2767 ft | 161 kts | 69° |
| 2026-04-13 05:19 | 49.96944 | 8.28839 | 2645 ft | 144 kts | 69° |
| 2026-04-13 05:19 | 49.97279 | 8.30212 | 2514 ft | 128 kts | 69° |
| 2026-04-13 05:19 | 49.97582 | 8.31469 | 2385 ft | 123 kts | 69° |
| 2026-04-13 05:20 | 49.97785 | 8.32318 | 2266 ft | 124 kts | 69° |
| 2026-04-13 05:20 | 49.98168 | 8.33953 | 2090 ft | 124 kts | 69° |
| 2026-04-13 05:20 | 49.98462 | 8.35212 | 1968 ft | 124 kts | 69° |
| 2026-04-13 05:20 | 49.98756 | 8.36468 | 1864 ft | 123 kts | 69° |
| 2026-04-13 05:21 | 49.99047 | 8.37728 | 1773 ft | 124 kts | 69° |
| 2026-04-13 05:21 | 49.99327 | 8.38947 | 1683 ft | 124 kts | 69° |
| 2026-04-13 05:21 | 49.99611 | 8.40184 | 1571 ft | 124 kts | 69° |
| 2026-04-13 05:21 | 49.99902 | 8.41447 | 1461 ft | 125 kts | 69° |
| 2026-04-13 05:22 | 50.00197 | 8.42731 | 1348 ft | 127 kts | 69° |
| 2026-04-13 05:22 | 50.00493 | 8.44029 | 1244 ft | 128 kts | 69° |
| 2026-04-13 05:22 | 50.00690 | 8.44895 | 1172 ft | 128 kts | 69° |
| 2026-04-13 05:22 | 50.00989 | 8.46210 | 1070 ft | 129 kts | 69° |
| 2026-04-13 05:23 | 50.01282 | 8.47528 | 958 ft | 127 kts | 69° |
| 2026-04-13 05:23 | 50.01610 | 8.48819 | 873 ft | 129 kts | 65° |
| 2026-04-13 05:23 | 50.01942 | 8.50091 | 751 ft | 129 kts | 67° |
| 2026-04-13 05:23 | 50.02266 | 8.51398 | 603 ft | 127 kts | 68° |
| 2026-04-13 05:24 | 50.02565 | 8.52641 | 469 ft | 125 kts | 67° |
| 2026-04-13 05:24 | 50.02868 | 8.53900 | 363 ft | 124 kts | 67° |
| 2026-04-13 05:24 | 50.03141 | 8.55027 | 358 ft | 102 kts | 70° |
| 2026-04-13 05:24 | 50.03335 | 8.55836 | 355 ft | 49 kts | 69° |
| 2026-04-13 05:25 | 50.03410 | 8.56128 | 357 ft | 24 kts | 60° |
| 2026-04-13 05:25 | 50.03507 | 8.56334 | 362 ft | 24 kts | 41° |
| 2026-04-13 05:25 | 50.03635 | 8.56497 | 359 ft | 24 kts | 39° |
| 2026-04-13 05:25 | 50.03736 | 8.56616 | 365 ft | 15 kts | 28° |
| 2026-04-13 05:26 | 50.03836 | 8.56662 | 366 ft | 15 kts | 11° |
| 2026-04-13 05:26 | 50.03939 | 8.56695 | 366 ft | 15 kts | 11° |
| 2026-04-13 05:26 | 50.04042 | 8.56727 | 363 ft | 15 kts | 11° |
| 2026-04-13 05:26 | 50.04146 | 8.56760 | 366 ft | 15 kts | 11° |
| 2026-04-13 05:27 | 50.04218 | 8.56736 | 366 ft | 10 kts | 295° |
| 2026-04-13 05:27 | 50.04209 | 8.56627 | 364 ft | 11 kts | 251° |
| 2026-04-13 05:27 | 50.04185 | 8.56517 | 364 ft | 11 kts | 251° |
| 2026-04-13 05:27 | 50.04159 | 8.56409 | 365 ft | 11 kts | 249° |
| 2026-04-13 05:28 | 50.04133 | 8.56304 | 360 ft | 11 kts | 249° |
| 2026-04-13 05:28 | 50.04106 | 8.56194 | 363 ft | 11 kts | 249° |
| 2026-04-13 05:28 | 50.04080 | 8.56087 | 365 ft | 11 kts | 249° |
| 2026-04-13 05:28 | 50.04083 | 8.55980 | 363 ft | 11 kts | 311° |
| 2026-04-13 05:29 | 50.04147 | 8.55940 | 363 ft | 11 kts | 341° |
| 2026-04-13 05:29 | 50.04218 | 8.55933 | 360 ft | 11 kts | 27° |
| 2026-04-13 05:29 | 50.04263 | 8.56025 | 367 ft | 11 kts | 52° |
| 2026-04-13 05:29 | 50.04340 | 8.56052 | 361 ft | 11 kts | 346° |
| 2026-04-13 05:30 | 50.04415 | 8.56043 | 369 ft | 11 kts | 24° |
| 2026-04-13 05:30 | 50.04457 | 8.56139 | 367 ft | 11 kts | 68° |
| 2026-04-13 05:30 | 50.04485 | 8.56251 | 367 ft | 11 kts | 70° |
| 2026-04-13 05:30 | 50.04511 | 8.56363 | 366 ft | 11 kts | 70° |
| 2026-04-13 05:31 | 50.04563 | 8.56446 | 368 ft | 11 kts | 27° |
| 2026-04-13 05:31 | 50.04603 | 8.56493 | 366 ft | 6 kts | 62° |
| 2026-04-13 05:31 | 50.04598 | 8.56558 | 367 ft | 7 kts | 108° |
| 2026-04-13 05:31 | 50.04585 | 8.56605 | 366 ft | 2 kts | 114° |
| 2026-04-13 05:32 | 50.04583 | 8.56612 | 369 ft | 0 kts | 115° |